sensor_id;sensor_type;location;lat;lon;timestamp;P1;P2;P0
80394;PMS7003;69720;40.224;116.432;2023-06-22T00:01:18;19.00;17.25;11.50
80394;PMS7003;69720;40.224;116.432;2023-06-22T00:03:46;18.25;18.25;13.00
80394;PMS7003;69720;40.224;116.432;2023-06-22T00:06:13;19.00;17.25;12.75
80394;PMS7003;69720;40.224;116.432;2023-06-22T00:08:41;19.25;18.50;13.50
80394;PMS7003;69720;40.224;116.432;2023-06-22T00:11:08;18.50;17.25;14.50
80394;PMS7003;69720;40.224;116.432;2023-06-22T00:13:35;16.50;15.25;12.00
80394;PMS7003;69720;40.224;116.432;2023-06-22T00:16:02;16.75;16.75;13.25
80394;PMS7003;69720;40.224;116.432;2023-06-22T00:18:29;19.50;19.50;14.25
80394;PMS7003;69720;40.224;116.432;2023-06-22T00:20:57;16.25;16.25;12.00
80394;PMS7003;69720;40.224;116.432;2023-06-22T00:23:25;19.00;17.50;12.00
80394;PMS7003;69720;40.224;116.432;2023-06-22T00:25:52;16.00;15.50;12.00
80394;PMS7003;69720;40.224;116.432;2023-06-22T00:28:19;18.00;16.75;13.00
80394;PMS7003;69720;40.224;116.432;2023-06-22T00:30:46;18.75;16.75;14.00
80394;PMS7003;69720;40.224;116.432;2023-06-22T00:33:14;17.50;16.75;12.00
80394;PMS7003;69720;40.224;116.432;2023-06-22T00:35:42;17.25;17.25;14.50
80394;PMS7003;69720;40.224;116.432;2023-06-22T00:38:09;20.25;17.00;12.25
80394;PMS7003;69720;40.224;116.432;2023-06-22T00:40:36;17.25;16.00;12.50
80394;PMS7003;69720;40.224;116.432;2023-06-22T00:43:03;17.00;16.50;12.75
80394;PMS7003;69720;40.224;116.432;2023-06-22T00:45:31;14.75;14.75;12.50
80394;PMS7003;69720;40.224;116.432;2023-06-22T00:47:58;19.00;18.75;14.50
80394;PMS7003;69720;40.224;116.432;2023-06-22T00:50:27;17.25;17.25;13.00
80394;PMS7003;69720;40.224;116.432;2023-06-22T00:53:00;15.25;15.25;11.00
80394;PMS7003;69720;40.224;116.432;2023-06-22T00:55:36;21.75;18.25;13.50
80394;PMS7003;69720;40.224;116.432;2023-06-22T00:58:13;17.00;16.25;13.00
80394;PMS7003;69720;40.224;116.432;2023-06-22T01:00:40;17.50;17.50;13.00
80394;PMS7003;69720;40.224;116.432;2023-06-22T01:03:08;17.00;17.00;12.00
80394;PMS7003;69720;40.224;116.432;2023-06-22T01:05:36;18.25;16.75;13.25
80394;PMS7003;69720;40.224;116.432;2023-06-22T01:15:57;15.25;14.75;11.00
80394;PMS7003;69720;40.224;116.432;2023-06-22T01:18:25;16.50;16.50;12.50
80394;PMS7003;69720;40.224;116.432;2023-06-22T01:20:56;16.00;16.00;12.25
80394;PMS7003;69720;40.224;116.432;2023-06-22T01:29:21;14.50;14.25;10.75
80394;PMS7003;69720;40.224;116.432;2023-06-22T01:31:50;14.50;14.50;11.25
80394;PMS7003;69720;40.224;116.432;2023-06-22T01:34:19;18.75;18.75;14.00
80394;PMS7003;69720;40.224;116.432;2023-06-22T01:36:49;17.00;15.00;12.50
80394;PMS7003;69720;40.224;116.432;2023-06-22T01:39:17;18.75;18.75;13.75
80394;PMS7003;69720;40.224;116.432;2023-06-22T01:41:45;19.75;18.50;14.50
80394;PMS7003;69720;40.224;116.432;2023-06-22T01:44:13;17.25;15.50;11.00
80394;PMS7003;69720;40.224;116.432;2023-06-22T01:46:41;16.75;16.75;13.25
80394;PMS7003;69720;40.224;116.432;2023-06-22T01:49:08;19.50;19.50;13.75
80394;PMS7003;69720;40.224;116.432;2023-06-22T01:51:35;18.75;18.00;14.00
80394;PMS7003;69720;40.224;116.432;2023-06-22T01:54:02;15.50;15.50;12.00
80394;PMS7003;69720;40.224;116.432;2023-06-22T01:56:29;18.00;17.25;13.00
80394;PMS7003;69720;40.224;116.432;2023-06-22T01:59:39;17.75;17.00;14.00
80394;PMS7003;69720;40.224;116.432;2023-06-22T02:01:54;20.00;19.25;14.50
80394;PMS7003;69720;40.224;116.432;2023-06-22T02:04:33;17.25;16.50;13.00
80394;PMS7003;69720;40.224;116.432;2023-06-22T02:07:23;20.25;19.75;13.50
80394;PMS7003;69720;40.224;116.432;2023-06-22T02:09:52;17.50;16.75;12.75
80394;PMS7003;69720;40.224;116.432;2023-06-22T02:12:23;18.75;17.75;12.00
80394;PMS7003;69720;40.224;116.432;2023-06-22T02:14:53;15.75;15.75;11.25
80394;PMS7003;69720;40.224;116.432;2023-06-22T02:17:20;17.25;15.00;12.00
80394;PMS7003;69720;40.224;116.432;2023-06-22T02:19:48;16.00;15.00;12.50
80394;PMS7003;69720;40.224;116.432;2023-06-22T02:22:15;18.25;17.75;14.75
80394;PMS7003;69720;40.224;116.432;2023-06-22T02:24:42;17.50;16.00;13.00
80394;PMS7003;69720;40.224;116.432;2023-06-22T02:27:09;18.75;18.50;13.00
80394;PMS7003;69720;40.224;116.432;2023-06-22T02:29:36;18.00;15.25;13.00
80394;PMS7003;69720;40.224;116.432;2023-06-22T02:32:03;16.50;16.00;12.75
80394;PMS7003;69720;40.224;116.432;2023-06-22T02:34:31;18.00;18.00;13.00
80394;PMS7003;69720;40.224;116.432;2023-06-22T02:36:59;16.50;16.50;13.00
80394;PMS7003;69720;40.224;116.432;2023-06-22T02:39:28;17.00;16.25;12.50
80394;PMS7003;69720;40.224;116.432;2023-06-22T02:41:55;16.50;16.50;13.00
80394;PMS7003;69720;40.224;116.432;2023-06-22T02:44:22;16.25;16.25;12.75
80394;PMS7003;69720;40.224;116.432;2023-06-22T02:46:49;19.25;16.75;12.75
80394;PMS7003;69720;40.224;116.432;2023-06-22T02:49:16;15.00;15.00;11.50
80394;PMS7003;69720;40.224;116.432;2023-06-22T02:51:47;17.25;17.25;12.25
80394;PMS7003;69720;40.224;116.432;2023-06-22T02:54:14;18.00;17.25;12.50
80394;PMS7003;69720;40.224;116.432;2023-06-22T02:56:42;15.50;15.50;12.00
80394;PMS7003;69720;40.224;116.432;2023-06-22T02:59:13;17.75;17.75;13.00
80394;PMS7003;69720;40.224;116.432;2023-06-22T03:01:40;16.50;15.00;11.75
80394;PMS7003;69720;40.224;116.432;2023-06-22T03:04:07;16.75;15.00;12.50
80394;PMS7003;69720;40.224;116.432;2023-06-22T03:06:35;17.50;17.00;13.00
80394;PMS7003;69720;40.224;116.432;2023-06-22T03:09:06;16.75;15.75;11.25
80394;PMS7003;69720;40.224;116.432;2023-06-22T03:11:33;16.25;14.75;14.00
80394;PMS7003;69720;40.224;116.432;2023-06-22T03:14:00;15.25;15.25;12.75
80394;PMS7003;69720;40.224;116.432;2023-06-22T03:16:28;17.50;17.25;13.00
80394;PMS7003;69720;40.224;116.432;2023-06-22T03:18:55;16.00;16.00;13.00
80394;PMS7003;69720;40.224;116.432;2023-06-22T03:21:22;15.50;15.00;11.75
80394;PMS7003;69720;40.224;116.432;2023-06-22T03:23:50;14.25;14.25;11.00
80394;PMS7003;69720;40.224;116.432;2023-06-22T03:26:17;18.00;18.00;13.00
80394;PMS7003;69720;40.224;116.432;2023-06-22T03:28:44;17.75;16.25;12.00
80394;PMS7003;69720;40.224;116.432;2023-06-22T03:31:12;18.00;18.00;13.75
80394;PMS7003;69720;40.224;116.432;2023-06-22T03:33:39;18.00;17.25;12.25
80394;PMS7003;69720;40.224;116.432;2023-06-22T03:36:06;17.25;17.25;13.25
80394;PMS7003;69720;40.224;116.432;2023-06-22T03:38:34;21.00;19.75;13.75
80394;PMS7003;69720;40.224;116.432;2023-06-22T03:41:01;20.25;20.00;15.25
80394;PMS7003;69720;40.224;116.432;2023-06-22T03:43:28;21.00;19.75;13.50
80394;PMS7003;69720;40.224;116.432;2023-06-22T03:45:55;22.50;20.00;14.25
80394;PMS7003;69720;40.224;116.432;2023-06-22T03:48:22;19.75;19.25;14.25
80394;PMS7003;69720;40.224;116.432;2023-06-22T03:50:49;20.00;19.25;15.00
80394;PMS7003;69720;40.224;116.432;2023-06-22T03:53:16;20.25;20.25;13.50
80394;PMS7003;69720;40.224;116.432;2023-06-22T03:55:49;18.00;18.00;13.50
80394;PMS7003;69720;40.224;116.432;2023-06-22T03:58:18;20.00;17.75;13.25
80394;PMS7003;69720;40.224;116.432;2023-06-22T04:00:47;20.25;18.25;13.75
80394;PMS7003;69720;40.224;116.432;2023-06-22T04:03:15;18.75;17.50;13.75
80394;PMS7003;69720;40.224;116.432;2023-06-22T04:05:44;17.50;15.75;12.75
80394;PMS7003;69720;40.224;116.432;2023-06-22T04:08:12;18.75;18.00;13.25
80394;PMS7003;69720;40.224;116.432;2023-06-22T04:10:39;15.75;15.75;11.75
80394;PMS7003;69720;40.224;116.432;2023-06-22T04:13:07;17.75;17.75;12.25
80394;PMS7003;69720;40.224;116.432;2023-06-22T04:15:34;15.00;15.00;11.75
80394;PMS7003;69720;40.224;116.432;2023-06-22T04:18:01;15.25;15.25;12.00
80394;PMS7003;69720;40.224;116.432;2023-06-22T04:20:29;19.00;17.00;14.00
80394;PMS7003;69720;40.224;116.432;2023-06-22T04:22:57;16.25;15.00;11.50
80394;PMS7003;69720;40.224;116.432;2023-06-22T04:25:24;15.50;15.50;12.00
80394;PMS7003;69720;40.224;116.432;2023-06-22T04:27:51;15.50;14.25;11.50
80394;PMS7003;69720;40.224;116.432;2023-06-22T04:30:18;14.50;14.50;11.25
80394;PMS7003;69720;40.224;116.432;2023-06-22T04:32:45;15.75;15.75;11.75
80394;PMS7003;69720;40.224;116.432;2023-06-22T04:35:21;16.00;14.75;11.25
80394;PMS7003;69720;40.224;116.432;2023-06-22T04:37:56;16.00;15.75;11.25
80394;PMS7003;69720;40.224;116.432;2023-06-22T04:40:23;14.25;13.50;11.00
80394;PMS7003;69720;40.224;116.432;2023-06-22T04:42:50;13.75;13.00;10.25
80394;PMS7003;69720;40.224;116.432;2023-06-22T04:45:20;16.50;14.75;11.75
80394;PMS7003;69720;40.224;116.432;2023-06-22T04:47:47;14.25;14.25;11.50
80394;PMS7003;69720;40.224;116.432;2023-06-22T04:50:15;12.00;12.00;8.75
80394;PMS7003;69720;40.224;116.432;2023-06-22T04:52:43;13.50;13.50;10.75
80394;PMS7003;69720;40.224;116.432;2023-06-22T04:55:11;15.50;14.75;11.50
80394;PMS7003;69720;40.224;116.432;2023-06-22T04:57:38;13.25;12.00;8.25
80394;PMS7003;69720;40.224;116.432;2023-06-22T05:00:06;15.00;12.25;9.75
80394;PMS7003;69720;40.224;116.432;2023-06-22T05:02:40;12.50;11.50;9.25
80394;PMS7003;69720;40.224;116.432;2023-06-22T05:05:08;13.00;12.25;9.25
80394;PMS7003;69720;40.224;116.432;2023-06-22T05:07:42;13.50;13.50;10.75
80394;PMS7003;69720;40.224;116.432;2023-06-22T05:10:13;16.00;15.00;10.50
80394;PMS7003;69720;40.224;116.432;2023-06-22T05:12:41;12.25;12.25;9.75
80394;PMS7003;69720;40.224;116.432;2023-06-22T05:15:08;13.75;13.75;9.75
80394;PMS7003;69720;40.224;116.432;2023-06-22T05:17:36;15.00;14.50;12.00
80394;PMS7003;69720;40.224;116.432;2023-06-22T05:20:11;15.25;14.50;10.50
80394;PMS7003;69720;40.224;116.432;2023-06-22T05:22:39;12.00;12.00;9.00
80394;PMS7003;69720;40.224;116.432;2023-06-22T05:25:09;15.25;15.25;11.50
80394;PMS7003;69720;40.224;116.432;2023-06-22T05:27:37;14.00;13.00;10.00
80394;PMS7003;69720;40.224;116.432;2023-06-22T05:30:08;15.25;15.25;11.50
80394;PMS7003;69720;40.224;116.432;2023-06-22T05:32:37;17.50;13.25;10.75
80394;PMS7003;69720;40.224;116.432;2023-06-22T05:35:04;14.00;14.00;11.50
80394;PMS7003;69720;40.224;116.432;2023-06-22T05:37:31;14.25;14.00;11.75
80394;PMS7003;69720;40.224;116.432;2023-06-22T05:39:58;19.25;15.75;11.50
80394;PMS7003;69720;40.224;116.432;2023-06-22T05:42:25;14.00;13.75;12.00
80394;PMS7003;69720;40.224;116.432;2023-06-22T05:44:52;13.75;13.75;11.75
80394;PMS7003;69720;40.224;116.432;2023-06-22T05:47:20;16.50;14.25;11.25
80394;PMS7003;69720;40.224;116.432;2023-06-22T05:49:48;17.00;15.00;12.00
80394;PMS7003;69720;40.224;116.432;2023-06-22T05:52:15;14.50;14.25;11.50
80394;PMS7003;69720;40.224;116.432;2023-06-22T05:54:42;16.50;13.75;10.25
80394;PMS7003;69720;40.224;116.432;2023-06-22T05:57:09;15.00;13.75;10.25
80394;PMS7003;69720;40.224;116.432;2023-06-22T05:59:37;15.25;14.75;11.00
80394;PMS7003;69720;40.224;116.432;2023-06-22T06:02:04;16.50;16.50;12.00
80394;PMS7003;69720;40.224;116.432;2023-06-22T06:04:31;17.50;13.75;11.00
80394;PMS7003;69720;40.224;116.432;2023-06-22T06:06:58;14.00;14.00;12.00
80394;PMS7003;69720;40.224;116.432;2023-06-22T06:09:26;15.00;13.00;10.25
80394;PMS7003;69720;40.224;116.432;2023-06-22T06:11:53;15.75;15.75;11.75
80394;PMS7003;69720;40.224;116.432;2023-06-22T06:14:20;13.00;13.00;11.00
80394;PMS7003;69720;40.224;116.432;2023-06-22T06:16:48;13.00;12.00;10.25
80394;PMS7003;69720;40.224;116.432;2023-06-22T06:19:15;17.25;16.50;13.00
80394;PMS7003;69720;40.224;116.432;2023-06-22T06:21:46;14.75;14.75;12.00
80394;PMS7003;69720;40.224;116.432;2023-06-22T06:24:13;16.00;16.00;11.75
80394;PMS7003;69720;40.224;116.432;2023-06-22T06:26:40;13.50;13.50;11.00
80394;PMS7003;69720;40.224;116.432;2023-06-22T06:29:07;14.25;14.25;11.75
80394;PMS7003;69720;40.224;116.432;2023-06-22T06:31:34;13.75;13.75;11.00
80394;PMS7003;69720;40.224;116.432;2023-06-22T06:34:02;14.50;14.50;12.00
80394;PMS7003;69720;40.224;116.432;2023-06-22T06:36:29;16.00;14.00;11.25
80394;PMS7003;69720;40.224;116.432;2023-06-22T06:38:56;16.50;15.50;11.75
80394;PMS7003;69720;40.224;116.432;2023-06-22T06:41:23;13.75;13.75;11.25
80394;PMS7003;69720;40.224;116.432;2023-06-22T06:43:50;16.75;14.50;12.00
80394;PMS7003;69720;40.224;116.432;2023-06-22T06:46:18;17.50;14.25;11.75
80394;PMS7003;69720;40.224;116.432;2023-06-22T06:48:46;20.25;18.75;13.75
80394;PMS7003;69720;40.224;116.432;2023-06-22T06:51:14;15.75;14.00;11.00
80394;PMS7003;69720;40.224;116.432;2023-06-22T06:53:41;15.25;15.25;11.50
80394;PMS7003;69720;40.224;116.432;2023-06-22T06:56:08;13.50;13.50;10.25
80394;PMS7003;69720;40.224;116.432;2023-06-22T07:13:11;15.75;15.75;12.00
80394;PMS7003;69720;40.224;116.432;2023-06-22T07:15:38;14.25;14.25;11.50
80394;PMS7003;69720;40.224;116.432;2023-06-22T07:18:06;16.00;15.75;13.00
80394;PMS7003;69720;40.224;116.432;2023-06-22T07:20:32;16.50;16.50;12.75
80394;PMS7003;69720;40.224;116.432;2023-06-22T07:23:03;14.25;14.00;12.00
80394;PMS7003;69720;40.224;116.432;2023-06-22T07:25:30;14.75;13.25;10.25
80394;PMS7003;69720;40.224;116.432;2023-06-22T07:28:02;18.00;16.25;13.25
80394;PMS7003;69720;40.224;116.432;2023-06-22T07:30:31;15.00;14.50;12.00
80394;PMS7003;69720;40.224;116.432;2023-06-22T07:32:59;17.50;16.00;12.50
80394;PMS7003;69720;40.224;116.432;2023-06-22T07:35:30;16.50;15.00;12.25
80394;PMS7003;69720;40.224;116.432;2023-06-22T07:37:57;16.50;15.75;13.75
80394;PMS7003;69720;40.224;116.432;2023-06-22T07:40:24;16.00;16.00;11.75
80394;PMS7003;69720;40.224;116.432;2023-06-22T07:42:51;17.75;17.00;13.00
80394;PMS7003;69720;40.224;116.432;2023-06-22T07:45:19;14.50;14.00;11.50
80394;PMS7003;69720;40.224;116.432;2023-06-22T07:47:46;14.25;14.00;11.00
80394;PMS7003;69720;40.224;116.432;2023-06-22T07:50:13;16.00;15.00;12.00
80394;PMS7003;69720;40.224;116.432;2023-06-22T07:52:40;17.00;15.50;12.00
80394;PMS7003;69720;40.224;116.432;2023-06-22T07:55:07;15.75;15.00;11.00
80394;PMS7003;69720;40.224;116.432;2023-06-22T07:57:34;15.50;15.25;11.50
80394;PMS7003;69720;40.224;116.432;2023-06-22T08:00:05;19.50;17.50;12.50
80394;PMS7003;69720;40.224;116.432;2023-06-22T08:02:40;13.00;13.00;11.25
80394;PMS7003;69720;40.224;116.432;2023-06-22T08:05:11;16.75;14.25;11.50
80394;PMS7003;69720;40.224;116.432;2023-06-22T08:07:39;15.25;14.75;11.00
80394;PMS7003;69720;40.224;116.432;2023-06-22T08:10:08;15.75;13.75;11.00
80394;PMS7003;69720;40.224;116.432;2023-06-22T08:12:38;17.50;17.50;11.75
80394;PMS7003;69720;40.224;116.432;2023-06-22T08:15:06;14.25;14.00;11.00
80394;PMS7003;69720;40.224;116.432;2023-06-22T08:17:33;15.75;15.75;11.50
80394;PMS7003;69720;40.224;116.432;2023-06-22T08:20:02;12.50;12.50;10.75
80394;PMS7003;69720;40.224;116.432;2023-06-22T08:22:39;13.25;13.25;10.00
80394;PMS7003;69720;40.224;116.432;2023-06-22T08:25:07;15.00;15.00;11.00
80394;PMS7003;69720;40.224;116.432;2023-06-22T08:27:35;16.50;15.50;13.00
80394;PMS7003;69720;40.224;116.432;2023-06-22T08:30:02;15.50;15.50;11.75
80394;PMS7003;69720;40.224;116.432;2023-06-22T08:32:30;13.25;13.25;10.75
80394;PMS7003;69720;40.224;116.432;2023-06-22T08:34:58;15.25;14.00;10.75
80394;PMS7003;69720;40.224;116.432;2023-06-22T08:37:25;15.25;13.25;10.75
80394;PMS7003;69720;40.224;116.432;2023-06-22T08:39:59;14.75;13.25;10.75
80394;PMS7003;69720;40.224;116.432;2023-06-22T08:42:29;13.00;13.00;10.25
80394;PMS7003;69720;40.224;116.432;2023-06-22T08:44:56;12.00;12.00;9.50
80394;PMS7003;69720;40.224;116.432;2023-06-22T08:47:24;12.00;12.00;10.25
80394;PMS7003;69720;40.224;116.432;2023-06-22T08:49:51;12.25;12.25;9.75
80394;PMS7003;69720;40.224;116.432;2023-06-22T08:52:18;15.75;14.00;11.25
80394;PMS7003;69720;40.224;116.432;2023-06-22T08:54:46;16.50;15.50;11.00
80394;PMS7003;69720;40.224;116.432;2023-06-22T08:57:13;11.50;11.50;8.50
80394;PMS7003;69720;40.224;116.432;2023-06-22T08:59:41;17.50;16.50;11.00
80394;PMS7003;69720;40.224;116.432;2023-06-22T09:02:09;14.50;13.00;10.25
80394;PMS7003;69720;40.224;116.432;2023-06-22T09:04:36;12.75;12.75;10.75
80394;PMS7003;69720;40.224;116.432;2023-06-22T09:07:03;14.50;13.75;11.50
80394;PMS7003;69720;40.224;116.432;2023-06-22T09:09:30;13.50;13.00;10.00
80394;PMS7003;69720;40.224;116.432;2023-06-22T09:11:57;15.50;14.00;10.75
80394;PMS7003;69720;40.224;116.432;2023-06-22T09:14:24;16.00;14.25;10.50
80394;PMS7003;69720;40.224;116.432;2023-06-22T09:16:51;14.50;13.50;10.00
80394;PMS7003;69720;40.224;116.432;2023-06-22T09:19:18;12.75;12.75;9.25
80394;PMS7003;69720;40.224;116.432;2023-06-22T09:21:44;10.75;10.75;9.25
80394;PMS7003;69720;40.224;116.432;2023-06-22T09:24:11;13.00;13.00;10.00
80394;PMS7003;69720;40.224;116.432;2023-06-22T09:26:38;14.00;13.75;10.00
80394;PMS7003;69720;40.224;116.432;2023-06-22T09:29:05;12.75;12.75;9.75
80394;PMS7003;69720;40.224;116.432;2023-06-22T09:31:32;12.75;12.75;10.50
80394;PMS7003;69720;40.224;116.432;2023-06-22T09:33:59;12.75;12.75;10.00
80394;PMS7003;69720;40.224;116.432;2023-06-22T09:36:26;11.75;11.75;9.25
80394;PMS7003;69720;40.224;116.432;2023-06-22T09:38:53;14.25;13.25;10.25
80394;PMS7003;69720;40.224;116.432;2023-06-22T09:41:24;13.00;11.25;9.00
80394;PMS7003;69720;40.224;116.432;2023-06-22T09:43:51;15.25;13.25;9.75
80394;PMS7003;69720;40.224;116.432;2023-06-22T09:46:18;11.50;11.50;9.00
80394;PMS7003;69720;40.224;116.432;2023-06-22T09:48:47;13.50;11.50;8.50
80394;PMS7003;69720;40.224;116.432;2023-06-22T09:51:14;10.00;10.00;8.00
80394;PMS7003;69720;40.224;116.432;2023-06-22T09:53:41;11.25;11.25;8.75
80394;PMS7003;69720;40.224;116.432;2023-06-22T09:56:09;11.25;11.25;8.25
80394;PMS7003;69720;40.224;116.432;2023-06-22T09:58:41;9.25;9.25;6.75
80394;PMS7003;69720;40.224;116.432;2023-06-22T10:01:09;10.75;10.75;8.00
80394;PMS7003;69720;40.224;116.432;2023-06-22T10:03:36;10.25;10.25;7.75
80394;PMS7003;69720;40.224;116.432;2023-06-22T10:06:03;11.25;9.75;7.50
80394;PMS7003;69720;40.224;116.432;2023-06-22T10:08:31;1.50;0.00;0.00
80394;PMS7003;69720;40.224;116.432;2023-06-22T10:10:58;11.25;11.25;8.00
80394;PMS7003;69720;40.224;116.432;2023-06-22T10:13:27;10.00;10.00;7.00
80394;PMS7003;69720;40.224;116.432;2023-06-22T10:15:54;10.00;9.75;7.00
80394;PMS7003;69720;40.224;116.432;2023-06-22T10:18:21;9.75;8.75;6.00
80394;PMS7003;69720;40.224;116.432;2023-06-22T10:20:49;8.00;8.00;7.00
80394;PMS7003;69720;40.224;116.432;2023-06-22T10:23:20;10.00;9.00;7.00
80394;PMS7003;69720;40.224;116.432;2023-06-22T10:25:47;8.75;8.00;6.75
80394;PMS7003;69720;40.224;116.432;2023-06-22T10:28:14;10.00;9.50;7.75
80394;PMS7003;69720;40.224;116.432;2023-06-22T10:30:41;8.25;7.50;6.00
80394;PMS7003;69720;40.224;116.432;2023-06-22T10:33:09;9.75;8.75;6.75
80394;PMS7003;69720;40.224;116.432;2023-06-22T10:35:36;9.50;9.50;7.75
80394;PMS7003;69720;40.224;116.432;2023-06-22T10:38:04;11.00;9.50;6.75
80394;PMS7003;69720;40.224;116.432;2023-06-22T10:40:32;9.00;9.00;6.25
80394;PMS7003;69720;40.224;116.432;2023-06-22T10:42:59;9.00;8.75;6.00
80394;PMS7003;69720;40.224;116.432;2023-06-22T10:45:26;10.00;10.00;7.00
80394;PMS7003;69720;40.224;116.432;2023-06-22T10:47:53;8.00;8.00;6.00
80394;PMS7003;69720;40.224;116.432;2023-06-22T10:50:20;10.00;10.00;7.00
80394;PMS7003;69720;40.224;116.432;2023-06-22T10:52:49;8.75;7.50;5.50
80394;PMS7003;69720;40.224;116.432;2023-06-22T10:55:16;8.00;8.00;5.50
80394;PMS7003;69720;40.224;116.432;2023-06-22T10:57:45;9.00;9.00;7.25
80394;PMS7003;69720;40.224;116.432;2023-06-22T11:00:12;7.75;7.00;6.00
80394;PMS7003;69720;40.224;116.432;2023-06-22T11:02:41;7.50;7.50;6.00
80394;PMS7003;69720;40.224;116.432;2023-06-22T11:05:09;9.25;9.25;7.00
80394;PMS7003;69720;40.224;116.432;2023-06-22T11:07:43;9.00;8.00;6.25
80394;PMS7003;69720;40.224;116.432;2023-06-22T11:10:12;9.50;8.25;7.00
80394;PMS7003;69720;40.224;116.432;2023-06-22T11:12:39;10.00;9.25;7.00
80394;PMS7003;69720;40.224;116.432;2023-06-22T11:15:06;9.00;9.00;6.75
80394;PMS7003;69720;40.224;116.432;2023-06-22T11:17:34;8.75;8.75;6.25
80394;PMS7003;69720;40.224;116.432;2023-06-22T11:20:04;9.25;8.50;6.50
80394;PMS7003;69720;40.224;116.432;2023-06-22T11:22:39;10.00;10.00;8.50
80394;PMS7003;69720;40.224;116.432;2023-06-22T11:25:07;7.50;7.50;5.75
80394;PMS7003;69720;40.224;116.432;2023-06-22T11:27:34;8.25;7.75;7.00
80394;PMS7003;69720;40.224;116.432;2023-06-22T11:30:01;9.75;9.75;7.00
80394;PMS7003;69720;40.224;116.432;2023-06-22T11:32:28;11.00;10.00;7.00
80394;PMS7003;69720;40.224;116.432;2023-06-22T11:34:55;8.00;8.00;7.00
80394;PMS7003;69720;40.224;116.432;2023-06-22T11:37:23;9.50;8.00;7.00
80394;PMS7003;69720;40.224;116.432;2023-06-22T11:39:50;12.00;10.50;7.00
80394;PMS7003;69720;40.224;116.432;2023-06-22T11:42:17;10.00;8.75;7.75
80394;PMS7003;69720;40.224;116.432;2023-06-22T11:44:44;12.00;10.75;8.00
80394;PMS7003;69720;40.224;116.432;2023-06-22T11:47:11;10.75;8.00;6.00
80394;PMS7003;69720;40.224;116.432;2023-06-22T11:49:38;9.50;9.25;6.75
80394;PMS7003;69720;40.224;116.432;2023-06-22T11:52:05;11.00;9.25;7.00
80394;PMS7003;69720;40.224;116.432;2023-06-22T11:54:32;8.00;8.00;7.00
80394;PMS7003;69720;40.224;116.432;2023-06-22T11:57:00;9.50;9.50;7.00
80394;PMS7003;69720;40.224;116.432;2023-06-22T11:59:27;9.25;9.00;5.75
80394;PMS7003;69720;40.224;116.432;2023-06-22T12:01:54;11.50;9.25;6.75
80394;PMS7003;69720;40.224;116.432;2023-06-22T12:04:21;10.25;9.00;7.00
80394;PMS7003;69720;40.224;116.432;2023-06-22T12:06:48;9.00;9.00;7.25
80394;PMS7003;69720;40.224;116.432;2023-06-22T12:09:15;10.50;10.25;8.25
80394;PMS7003;69720;40.224;116.432;2023-06-22T12:11:42;12.25;10.25;7.50
80394;PMS7003;69720;40.224;116.432;2023-06-22T12:14:09;11.50;11.00;8.25
80394;PMS7003;69720;40.224;116.432;2023-06-22T12:16:36;8.00;8.00;7.00
80394;PMS7003;69720;40.224;116.432;2023-06-22T12:19:04;10.00;10.00;7.50
80394;PMS7003;69720;40.224;116.432;2023-06-22T12:21:31;9.75;9.00;7.75
80394;PMS7003;69720;40.224;116.432;2023-06-22T12:23:58;7.50;7.00;5.50
80394;PMS7003;69720;40.224;116.432;2023-06-22T12:26:25;9.25;9.25;7.00
80394;PMS7003;69720;40.224;116.432;2023-06-22T12:28:52;8.75;8.75;6.25
80394;PMS7003;69720;40.224;116.432;2023-06-22T12:31:19;9.25;9.00;6.75
80394;PMS7003;69720;40.224;116.432;2023-06-22T12:33:46;9.25;9.25;7.00
80394;PMS7003;69720;40.224;116.432;2023-06-22T12:36:13;14.50;11.00;8.00
80394;PMS7003;69720;40.224;116.432;2023-06-22T12:38:42;9.25;8.00;5.75
80394;PMS7003;69720;40.224;116.432;2023-06-22T12:41:10;9.00;8.00;6.00
80394;PMS7003;69720;40.224;116.432;2023-06-22T12:43:37;8.75;8.75;7.00
80394;PMS7003;69720;40.224;116.432;2023-06-22T12:46:04;9.00;9.00;7.00
80394;PMS7003;69720;40.224;116.432;2023-06-22T12:48:31;8.25;8.25;6.50
80394;PMS7003;69720;40.224;116.432;2023-06-22T12:50:58;9.25;9.25;7.50
80394;PMS7003;69720;40.224;116.432;2023-06-22T12:53:25;12.00;10.50;8.50
80394;PMS7003;69720;40.224;116.432;2023-06-22T12:55:52;11.00;11.00;8.75
80394;PMS7003;69720;40.224;116.432;2023-06-22T12:58:20;8.00;8.00;6.00
80394;PMS7003;69720;40.224;116.432;2023-06-22T13:00:47;8.50;8.50;6.25
80394;PMS7003;69720;40.224;116.432;2023-06-22T13:03:14;7.75;7.25;6.75
80394;PMS7003;69720;40.224;116.432;2023-06-22T13:05:41;10.50;10.50;8.00
80394;PMS7003;69720;40.224;116.432;2023-06-22T13:08:08;14.00;14.00;10.50
80394;PMS7003;69720;40.224;116.432;2023-06-22T13:10:36;16.75;15.25;11.75
80394;PMS7003;69720;40.224;116.432;2023-06-22T13:13:03;22.25;21.00;14.75
80394;PMS7003;69720;40.224;116.432;2023-06-22T13:15:30;22.50;22.50;16.00
80394;PMS7003;69720;40.224;116.432;2023-06-22T13:17:57;26.25;25.25;16.00
80394;PMS7003;69720;40.224;116.432;2023-06-22T13:20:24;22.00;21.75;15.75
80394;PMS7003;69720;40.224;116.432;2023-06-22T13:22:51;20.50;19.50;14.50
80394;PMS7003;69720;40.224;116.432;2023-06-22T13:25:19;22.00;21.50;16.25
80394;PMS7003;69720;40.224;116.432;2023-06-22T13:27:49;25.00;22.75;16.00
80394;PMS7003;69720;40.224;116.432;2023-06-22T13:30:16;20.25;20.25;15.00
80394;PMS7003;69720;40.224;116.432;2023-06-22T13:32:43;25.75;25.75;17.50
80394;PMS7003;69720;40.224;116.432;2023-06-22T13:35:11;23.25;22.75;17.00
80394;PMS7003;69720;40.224;116.432;2023-06-22T13:37:42;22.25;22.25;15.75
80394;PMS7003;69720;40.224;116.432;2023-06-22T13:40:09;21.50;19.25;13.75
80394;PMS7003;69720;40.224;116.432;2023-06-22T13:42:36;23.75;22.50;15.00
80394;PMS7003;69720;40.224;116.432;2023-06-22T13:45:04;20.00;20.00;15.00
80394;PMS7003;69720;40.224;116.432;2023-06-22T13:47:32;24.00;21.50;15.50
80394;PMS7003;69720;40.224;116.432;2023-06-22T13:49:59;24.50;20.50;15.25
80394;PMS7003;69720;40.224;116.432;2023-06-22T13:52:26;24.50;22.25;14.50
80394;PMS7003;69720;40.224;116.432;2023-06-22T13:54:53;20.25;20.25;15.75
80394;PMS7003;69720;40.224;116.432;2023-06-22T13:57:20;23.50;22.50;16.00
80394;PMS7003;69720;40.224;116.432;2023-06-22T13:59:47;22.50;22.50;16.00
80394;PMS7003;69720;40.224;116.432;2023-06-22T14:02:14;23.00;20.75;15.50